Terminal Aerodrome Forecast
Issued by NWS Twin Cities, MN

Home | Current Version | Previous Version | Text Only | Print | Product List | Glossary On
Versions: 1 2 3 4 5 6 7 8 9 10 11 12 13 14 15 16 17 18 19
000
FTUS43 KMPX 020557
TAFEAU
TAF
KEAU 020557Z 0206/0306 23005KT P6SM -SHRA SCT050 BKN070
     FM020600 23009KT P6SM BKN250
     FM020800 28005KT P6SM SCT250
     FM021500 28015G20KT P6SM SKC
     FM030300 27008KT P6SM BKN250=

USA.gov is the U.S. government's official web portal to all federal, state and local government web resources and services.